Izmir/Cumaovasi, Turkey

8:50 PM +03 on December 09, 2016 (GMT +0300)
Izmir | | Change Station

Elev 394 ft 38.29 °N, 27.15 °E | Updated 30 minutes ago

Clear
Clear
39 °F
Feels Like 39 °F
N
0
Wind Variable Wind from North

Today
High -- | Low -- °F
--% Chance of Precip.
Yesterday
High -- | Low -- °F
Precip. -- in
Pressure 30.30 in
Visibility 4.3 miles
Clouds
Dew Point 30 °F
Humidity 70%
Rainfall 0.00 in
Snow Depth Not available.
8:16 AM 5:51 PM
Waxing Gibbous, 76% visible
METAR LTBJ 091720Z 00000KT 7000 NSC 04/M01 Q1026 NOSIG RMK RWY16 07003KT 010V100
Pressure 30.30 in
Visibility 4.3 miles
Clouds
Dew Point 30 °F
Humidity 70%
Rainfall 0.00 in
Snow Depth Not available.
8:16 AM 5:51 PM
Waxing Gibbous, 76% visible
METAR LTBJ 091720Z 00000KT 7000 NSC 04/M01 Q1026 NOSIG RMK RWY16 07003KT 010V100

10-Day Weather Forecast

×

Almanac

Astronomy

Dec. 09, 2016 Rise Set
Actual Time
Civil Twilight
Nautical Twilight
Astronomical Twilight
Moon
Length of Visible Light
Length of Day
Tomorrow will be .
, % of the Moon is Illuminated

Today's Extremes

Country Highs Country Lows

Community

WunderPhotos

Upload Photos

1,956,462 photos uploaded!

WunderBlog® & News

Nearby

Air Quality

  Air Quality AQ Index Pollutant
Not available.

Snow Depth

Station Depth Elevation

Earthquake Activity

City Distance Mag. Time & Date
Minimum magnitude displayed is 2.5.

Coastal Water Temperatures

Place Temperature

Stations

Nearby Weather Stations

Station Location Temp. Windchill Dew Point Humidity Wind Precip. Elev Updated Type